Time;durP1;ratioP1;P1;durP2;ratioP2;P2;SDS_P1;SDS_P2;PMS_P1;PMS_P2;Temp;Humidity;BMP_temperature;BMP_pressure;BME280_temperature;BME280_humidity;BME280_pressure;Samples;Min_cycle;Max_cycle;Signal;HPM_P1;HPM_P2
2022/06/13 00:01:19;;;;;;;5.10;3.90;;;18.40;99.90;;;;;;5078642;28;20419;-43
2022/06/13 00:03:45;;;;;;;7.77;4.00;;;18.50;99.90;;;;;;5079504;28;20515;-47
2022/06/13 00:06:11;;;;;;;5.97;4.17;;;18.50;99.90;;;;;;5078639;28;20442;-45
2022/06/13 00:08:37;;;;;;;3.77;3.47;;;18.60;99.90;;;;;;5078137;28;21112;-41
2022/06/13 00:11:04;;;;;;;3.33;3.03;;;18.60;99.90;;;;;;5078128;28;20336;-43
2022/06/13 00:13:30;;;;;;;4.20;3.60;;;18.70;99.90;;;;;;5078429;28;20480;-45
2022/06/13 00:15:56;;;;;;;5.57;3.37;;;18.60;99.90;;;;;;5078385;28;20417;-42
2022/06/13 00:18:21;;;;;;;5.23;3.37;;;18.60;99.90;;;;;;5078684;28;20192;-44
2022/06/13 00:20:47;;;;;;;3.60;3.30;;;18.60;99.90;;;;;;5078397;28;20565;-42
2022/06/13 00:23:12;;;;;;;16.63;3.90;;;18.50;99.90;;;;;;5077546;28;20253;-42
2022/06/13 00:25:38;;;;;;;4.67;3.10;;;18.50;99.90;;;;;;5077274;28;20266;-42
2022/06/13 00:28:04;;;;;;;3.60;3.30;;;18.60;99.90;;;;;;5078621;28;20186;-41
2022/06/13 00:30:29;;;;;;;4.10;3.70;;;18.60;99.90;;;;;;5077710;28;20225;-43
2022/06/13 00:32:56;;;;;;;5.77;4.00;;;18.70;99.90;;;;;;5076865;28;20472;-43
2022/06/13 00:35:21;;;;;;;4.90;3.80;;;18.80;99.90;;;;;;5076560;28;20185;-44
2022/06/13 00:37:47;;;;;;;3.83;3.43;;;18.90;99.90;;;;;;5076514;28;20708;-44
2022/06/13 00:40:13;;;;;;;5.03;4.50;;;18.90;99.90;;;;;;5076733;28;20565;-42
2022/06/13 00:42:39;;;;;;;5.70;3.90;;;18.90;99.90;;;;;;5076585;28;20179;-46
2022/06/13 00:45:10;;;;;;;3.90;3.60;;;18.90;99.90;;;;;;5075936;28;20184;-46
2022/06/13 00:47:38;;;;;;;4.50;3.60;;;18.90;99.90;;;;;;5077929;28;20871;-42
2022/06/13 00:50:05;;;;;;;4.63;4.10;;;18.70;99.90;;;;;;5077882;28;20829;-42
2022/06/13 00:52:55;;;;;;;4.23;3.83;;;18.50;99.90;;;;;;5077153;28;20483;-46
2022/06/13 00:55:32;;;;;;;7.60;4.60;;;18.30;99.90;;;;;;5077253;28;20424;-44
2022/06/13 00:57:59;;;;;;;5.37;4.20;;;18.20;99.90;;;;;;5077309;28;20925;-45
2022/06/13 01:00:25;;;;;;;4.83;4.43;;;18.20;99.90;;;;;;5060174;28;20510;-43
2022/06/13 01:02:51;;;;;;;4.20;3.90;;;18.10;99.90;;;;;;5078023;28;20977;-42
2022/06/13 01:05:23;;;;;;;5.63;4.47;;;18.00;99.90;;;;;;5077800;28;20205;-45
2022/06/13 01:07:50;;;;;;;5.10;3.90;;;17.90;99.90;;;;;;5076527;28;20181;-44
2022/06/13 01:14:18;;;;;;;4.30;3.90;;;17.70;99.90;;;;;;5077019;28;20432;-44
2022/06/13 01:17:02;;;;;;;5.23;4.20;;;17.70;99.90;;;;;;5077354;28;20426;-42
2022/06/13 01:19:34;;;;;;;4.23;3.93;;;17.70;99.90;;;;;;5076245;28;20417;-44
2022/06/13 01:22:37;;;;;;;4.60;4.10;;;17.80;99.90;;;;;;5074942;28;20409;-43
2022/06/13 01:25:26;;;;;;;4.27;3.87;;;17.90;99.90;;;;;;5075809;28;20451;-42
2022/06/13 01:28:22;;;;;;;5.67;4.60;;;17.90;99.90;;;;;;5075243;28;20432;-43
2022/06/13 01:31:09;;;;;;;4.40;3.63;;;18.00;99.90;;;;;;5076598;28;20467;-44
2022/06/13 01:33:37;;;;;;;5.60;4.53;;;18.00;99.90;;;;;;5076920;28;20757;-42
2022/06/13 01:36:21;;;;;;;4.00;3.70;;;18.10;99.90;;;;;;5077243;28;20833;-42
2022/06/13 01:39:08;;;;;;;4.57;3.77;;;18.10;99.90;;;;;;5080952;28;20416;-43
2022/06/13 01:41:58;;;;;;;5.23;4.03;;;18.10;99.90;;;;;;5080823;28;20701;-41
2022/06/13 01:44:54;;;;;;;3.87;3.47;;;18.20;99.90;;;;;;5080864;28;20485;-46
2022/06/13 01:47:25;;;;;;;5.60;4.33;;;18.10;99.90;;;;;;5079500;28;20423;-45
2022/06/13 01:50:18;;;;;;;4.47;4.07;;;18.20;99.90;;;;;;5079976;28;20411;-42
2022/06/13 01:56:16;;;;;;;3.60;3.30;;;18.20;99.90;;;;;;5080255;28;20436;-41
2022/06/13 01:59:02;;;;;;;4.43;3.80;;;18.10;99.90;;;;;;5078908;28;20424;-42
2022/06/13 02:01:39;;;;;;;3.90;3.60;;;18.10;99.90;;;;;;5079234;28;20416;-42
2022/06/13 02:04:14;;;;;;;4.33;3.93;;;18.10;99.90;;;;;;5079713;28;20537;-41
2022/06/13 02:07:05;;;;;;;4.60;3.80;;;18.10;99.90;;;;;;5079757;28;20486;-43
2022/06/13 02:09:37;;;;;;;3.90;3.50;;;18.10;99.90;;;;;;5062605;28;20434;-44
2022/06/13 02:12:03;;;;;;;4.90;4.40;;;18.00;99.90;;;;;;5079126;28;20464;-42
2022/06/13 02:14:40;;;;;;;4.37;3.97;;;17.90;99.90;;;;;;5079449;28;20413;-42
2022/06/13 02:17:05;;;;;;;4.27;3.90;;;17.90;99.90;;;;;;5079510;28;20413;-42
2022/06/13 02:19:52;;;;;;;4.13;3.67;;;17.90;99.90;;;;;;5079757;28;20412;-42
2022/06/13 02:22:32;;;;;;;4.73;4.23;;;17.90;99.90;;;;;;5079740;28;20168;-46
2022/06/13 02:25:04;;;;;;;5.17;4.67;;;17.90;99.90;;;;;;5079814;28;20482;-41
2022/06/13 02:27:35;;;;;;;4.60;4.20;;;17.90;99.90;;;;;;5079931;28;20436;-42
2022/06/13 02:30:18;;;;;;;7.33;4.60;;;17.90;99.90;;;;;;5079622;28;20514;-41
2022/06/13 02:32:47;;;;;;;5.00;4.47;;;17.90;99.90;;;;;;5078903;28;20475;-45
2022/06/13 02:35:38;;;;;;;4.90;4.50;;;17.90;99.90;;;;;;5079787;28;20432;-42
2022/06/13 02:38:17;;;;;;;5.40;4.90;;;17.80;99.90;;;;;;5071715;28;20416;-43
2022/06/13 02:40:50;;;;;;;5.57;5.07;;;17.80;99.90;;;;;;5078531;28;20509;-45
2022/06/13 02:43:20;;;;;;;5.87;5.37;;;17.80;99.90;;;;;;5078312;28;20456;-41
2022/06/13 02:46:01;;;;;;;5.93;4.90;;;17.70;99.90;;;;;;5078408;28;20404;-43
2022/06/13 02:48:40;;;;;;;5.20;4.70;;;17.80;99.90;;;;;;5077377;28;20739;-44
2022/06/13 02:51:16;;;;;;;6.67;5.10;;;17.80;99.90;;;;;;5078344;28;20451;-41
2022/06/13 02:54:05;;;;;;;6.40;4.80;;;17.80;99.90;;;;;;5079383;28;20446;-44
2022/06/13 02:56:34;;;;;;;5.10;4.30;;;17.80;99.90;;;;;;5078381;28;20412;-42
2022/06/13 02:59:31;;;;;;;6.43;5.27;;;17.70;99.90;;;;;;5079743;28;20805;-43
2022/06/13 03:01:59;;;;;;;5.70;5.20;;;17.70;99.90;;;;;;5063893;28;20671;-41
2022/06/13 03:04:42;;;;;;;4.60;4.20;;;17.60;99.90;;;;;;5077895;28;20428;-42
2022/06/13 03:07:31;;;;;;;7.43;4.17;;;17.60;99.90;;;;;;5078141;28;20705;-41
2022/06/13 03:10:01;;;;;;;5.10;4.50;;;17.60;99.90;;;;;;5077996;28;20848;-41
2022/06/13 03:12:52;;;;;;;4.30;3.80;;;17.60;99.90;;;;;;5077141;28;20484;-43
2022/06/13 03:15:27;;;;;;;3.63;3.13;;;17.50;99.90;;;;;;5078245;28;20465;-43
2022/06/13 03:18:17;;;;;;;4.60;3.87;;;17.40;99.90;;;;;;5078029;28;20696;-40
2022/06/13 03:20:50;;;;;;;6.07;4.10;;;17.40;99.90;;;;;;5070080;28;20452;-41
2022/06/13 03:23:21;;;;;;;7.43;3.70;;;17.40;99.90;;;;;;5077420;28;20814;-43
2022/06/13 03:26:06;;;;;;;5.30;3.50;;;17.40;99.90;;;;;;5079061;28;20432;-42
2022/06/13 03:28:44;;;;;;;5.87;3.93;;;17.40;99.90;;;;;;5077894;28;20424;-42
2022/06/13 03:31:43;;;;;;;6.57;3.90;;;17.40;99.90;;;;;;5077787;28;20461;-43
2022/06/13 03:34:14;;;;;;;7.57;3.37;;;17.40;99.90;;;;;;5076624;28;20920;-43
2022/06/13 03:36:57;;;;;;;4.73;3.67;;;17.40;99.90;;;;;;5078292;28;20406;-41
2022/06/13 03:39:27;;;;;;;5.10;4.20;;;17.30;99.90;;;;;;5077010;28;20408;-42
2022/06/13 03:41:53;;;;;;;7.83;4.37;;;17.30;99.90;;;;;;5077224;28;20720;-41
2022/06/13 03:44:57;;;;;;;5.33;3.93;;;17.40;99.90;;;;;;5078549;28;20422;-44
2022/06/13 03:47:39;;;;;;;5.03;3.47;;;17.40;99.90;;;;;;5077782;28;20450;-41
2022/06/13 03:50:34;;;;;;;6.40;3.67;;;17.40;99.90;;;;;;5076237;28;20416;-43
2022/06/13 03:53:21;;;;;;;3.33;3.03;;;17.40;99.90;;;;;;5074755;28;20470;-41
2022/06/13 03:55:54;;;;;;;7.13;4.23;;;17.40;99.60;;;;;;5075930;28;20806;-43
2022/06/13 03:58:24;;;;;;;5.73;3.73;;;17.30;98.90;;;;;;5075003;28;20424;-43
2022/06/13 04:00:58;;;;;;;6.80;4.67;;;17.30;98.80;;;;;;5074767;28;20425;-41
2022/06/13 04:03:24;;;;;;;9.20;4.20;;;17.20;99.10;;;;;;5075888;28;20520;-42
2022/06/13 04:06:01;;;;;;;5.57;3.53;;;17.30;99.10;;;;;;5075235;28;20661;-44
2022/06/13 04:08:29;;;;;;;5.30;3.70;;;17.30;98.70;;;;;;5075711;28;20421;-40
2022/06/13 04:11:17;;;;;;;7.13;3.80;;;17.30;97.90;;;;;;5082600;28;20422;-43
2022/06/13 04:14:33;;;;;;;5.67;4.03;;;17.30;98.10;;;;;;5095132;28;20782;-42
2022/06/13 04:17:18;;;;;;;4.77;3.47;;;17.30;98.40;;;;;;5070449;28;20418;-42
2022/06/13 04:19:54;;;;;;;4.93;3.80;;;17.30;98.30;;;;;;5093740;28;20418;-41
2022/06/13 04:22:44;;;;;;;6.30;3.80;;;17.30;98.50;;;;;;5094124;28;20705;-45
2022/06/13 04:25:43;;;;;;;7.97;4.30;;;17.30;98.30;;;;;;5096402;28;20459;-40
2022/06/13 04:28:28;;;;;;;7.60;4.20;;;17.40;97.80;;;;;;5096070;28;20416;-44
2022/06/13 04:30:56;;;;;;;5.50;3.83;;;17.40;97.80;;;;;;5095874;28;20575;-44
2022/06/13 04:33:30;;;;;;;8.00;4.80;;;17.40;97.70;;;;;;5094996;28;20747;-43
2022/06/13 04:35:56;;;;;;;7.50;4.10;;;17.40;97.30;;;;;;5095018;28;20472;-41
2022/06/13 04:38:23;;;;;;;7.00;4.30;;;17.40;97.60;;;;;;5095520;28;20434;-42
2022/06/13 04:40:53;;;;;;;8.03;4.43;;;17.40;96.60;;;;;;5095460;28;20490;-41
2022/06/13 04:43:23;;;;;;;8.23;3.60;;;17.30;96.10;;;;;;5095320;28;20815;-43
2022/06/13 04:45:51;;;;;;;6.23;3.90;;;17.30;96.30;;;;;;5093017;28;20414;-43
2022/06/13 04:48:17;;;;;;;7.87;4.23;;;17.20;96.80;;;;;;5092864;28;20464;-43
2022/06/13 04:50:47;;;;;;;9.20;5.03;;;17.20;96.60;;;;;;5097599;28;20416;-41
2022/06/13 04:53:19;;;;;;;7.00;3.63;;;17.10;96.20;;;;;;5095204;28;20460;-41
2022/06/13 04:55:46;;;;;;;7.13;4.03;;;17.10;96.50;;;;;;5090033;28;20419;-47
2022/06/13 04:58:26;;;;;;;5.33;3.67;;;17.10;95.80;;;;;;5090146;28;20451;-41
2022/06/13 05:00:57;;;;;;;6.77;3.93;;;16.90;95.50;;;;;;5082700;28;20414;-42
2022/06/13 05:03:25;;;;;;;7.20;4.13;;;16.90;95.20;;;;;;5083426;28;20441;-41
2022/06/13 05:05:54;;;;;;;6.27;4.10;;;17.00;95.30;;;;;;5065790;28;20431;-45
2022/06/13 05:08:25;;;;;;;9.23;4.07;;;17.00;95.10;;;;;;5083157;28;20441;-42
2022/06/13 05:10:58;;;;;;;8.37;3.90;;;17.00;95.20;;;;;;5081818;28;20416;-41
2022/06/13 05:13:24;;;;;;;8.63;4.20;;;17.10;95.40;;;;;;5086250;28;20480;-42
2022/06/13 05:16:11;;;;;;;5.17;3.90;;;17.20;95.20;;;;;;5086529;28;20504;-42
2022/06/13 05:18:55;;;;;;;5.80;4.10;;;17.20;95.00;;;;;;5088448;28;20424;-42
2022/06/13 05:21:42;;;;;;;6.80;4.13;;;17.30;94.50;;;;;;5077616;28;20478;-44
2022/06/13 05:24:26;;;;;;;10.40;3.93;;;17.20;94.40;;;;;;5077740;28;20497;-42
2022/06/13 05:26:51;;;;;;;7.07;3.80;;;17.00;94.50;;;;;;5079046;28;20504;-42
2022/06/13 05:29:17;;;;;;;5.43;4.00;;;16.90;94.70;;;;;;5077511;28;20837;-41
2022/06/13 05:31:43;;;;;;;7.83;4.00;;;17.00;94.70;;;;;;5081246;28;20205;-42
2022/06/13 05:34:27;;;;;;;5.70;4.03;;;17.00;94.80;;;;;;5083623;28;20217;-43
2022/06/13 05:36:53;;;;;;;7.37;4.73;;;17.20;95.00;;;;;;5083900;28;20431;-41
2022/06/13 05:39:19;;;;;;;10.60;5.30;;;17.30;94.20;;;;;;5096831;28;20438;-41
2022/06/13 05:41:45;;;;;;;7.73;4.33;;;17.40;94.00;;;;;;5096162;28;20689;-42
2022/06/13 05:44:11;;;;;;;5.70;4.37;;;17.50;93.90;;;;;;5096940;28;20642;-43
2022/06/13 05:46:37;;;;;;;6.97;4.87;;;17.60;94.30;;;;;;5094743;28;20405;-43
2022/06/13 05:49:04;;;;;;;7.93;4.37;;;17.70;94.20;;;;;;5095530;28;20191;-40
2022/06/13 05:51:30;;;;;;;10.17;4.00;;;17.90;93.90;;;;;;5095722;28;20425;-43
2022/06/13 05:54:00;;;;;;;6.17;4.00;;;18.10;93.30;;;;;;5096020;28;20421;-42
2022/06/13 05:56:26;;;;;;;6.53;4.17;;;18.10;93.30;;;;;;5096623;28;20255;-46
2022/06/13 05:58:52;;;;;;;7.30;4.30;;;18.30;93.10;;;;;;5095450;28;20463;-45
2022/06/13 06:01:17;;;;;;;5.27;3.93;;;18.30;92.20;;;;;;5095810;28;20180;-42
2022/06/13 06:03:46;;;;;;;5.13;4.10;;;18.40;92.20;;;;;;5096809;28;20442;-44
2022/06/13 06:06:16;;;;;;;5.67;4.17;;;18.40;91.90;;;;;;5097095;28;20179;-44
2022/06/13 06:08:42;;;;;;;4.57;3.80;;;18.60;91.90;;;;;;5095754;28;20423;-43
2022/06/13 06:11:08;;;;;;;7.03;3.90;;;18.60;92.10;;;;;;5097594;28;20698;-46
2022/06/13 06:13:34;;;;;;;6.77;4.60;;;18.50;91.30;;;;;;5097222;28;20301;-45
2022/06/13 06:16:01;;;;;;;8.00;4.00;;;18.60;91.90;;;;;;5097055;28;20500;-44
2022/06/13 06:18:29;;;;;;;6.27;4.67;;;18.70;91.30;;;;;;5096417;28;20174;-43
2022/06/13 06:20:55;;;;;;;9.20;4.33;;;18.80;91.10;;;;;;5095568;28;20415;-43
2022/06/13 06:23:20;;;;;;;6.00;4.20;;;18.90;91.10;;;;;;5097796;28;20431;-44
2022/06/13 06:25:50;;;;;;;7.03;4.37;;;18.90;90.30;;;;;;5097994;28;20169;-43
2022/06/13 06:28:20;;;;;;;6.13;4.33;;;19.00;90.40;;;;;;5097645;28;20197;-44
2022/06/13 06:30:46;;;;;;;8.43;3.93;;;18.90;90.50;;;;;;5098805;28;20569;-44
2022/06/13 06:33:12;;;;;;;7.53;3.90;;;19.00;89.90;;;;;;5099098;28;20557;-45
2022/06/13 06:35:39;;;;;;;5.30;3.60;;;19.10;90.30;;;;;;5097598;28;20215;-43
2022/06/13 06:38:06;;;;;;;6.67;3.63;;;19.30;90.30;;;;;;5098498;28;20861;-44
2022/06/13 06:40:31;;;;;;;7.97;4.00;;;19.50;90.40;;;;;;5097513;28;20720;-44
2022/06/13 06:42:57;;;;;;;9.03;3.67;;;19.70;90.40;;;;;;5097413;28;20421;-45
2022/06/13 06:45:24;;;;;;;10.10;4.00;;;20.00;90.30;;;;;;5097247;28;20206;-44
2022/06/13 06:47:50;;;;;;;8.90;3.57;;;20.30;89.40;;;;;;5097734;28;20208;-45
2022/06/13 06:50:19;;;;;;;6.60;3.50;;;20.50;86.20;;;;;;5097403;28;20473;-47
2022/06/13 06:52:45;;;;;;;4.87;2.90;;;20.70;86.10;;;;;;5096019;28;20527;-44
2022/06/13 07:00:46;;;;;;;8.30;3.40;;;21.10;81.40;;;;;;5097449;28;20844;-48
2022/06/13 07:03:12;;;;;;;5.90;2.97;;;21.00;80.80;;;;;;5096419;28;20417;-47
2022/06/13 07:05:38;;;;;;;5.77;3.33;;;21.00;81.00;;;;;;5098580;28;20514;-49
2022/06/13 07:08:03;;;;;;;5.90;3.33;;;21.20;81.20;;;;;;5097289;28;20913;-45
2022/06/13 07:10:29;;;;;;;4.40;3.13;;;21.30;79.90;;;;;;5097776;28;20176;-46
2022/06/13 07:12:55;;;;;;;6.20;3.40;;;21.40;79.90;;;;;;5097941;28;20506;-44
2022/06/13 07:15:21;;;;;;;5.23;3.40;;;21.50;79.90;;;;;;5097788;28;20421;-46
2022/06/13 07:17:47;;;;;;;4.20;3.17;;;21.60;78.90;;;;;;5097668;28;20823;-44
2022/06/13 07:20:13;;;;;;;5.37;3.00;;;21.60;78.10;;;;;;5096410;28;20440;-46
2022/06/13 07:22:46;;;;;;;7.13;3.20;;;21.70;77.50;;;;;;5097340;28;20466;-44
2022/06/13 07:25:16;;;;;;;5.03;3.70;;;21.90;77.00;;;;;;5095757;28;20400;-46
2022/06/13 07:27:42;;;;;;;6.67;4.20;;;22.10;76.20;;;;;;5095824;28;20420;-45
2022/06/13 07:30:08;;;;;;;5.17;3.50;;;22.30;76.20;;;;;;5095279;28;20545;-47
2022/06/13 07:32:34;;;;;;;7.10;3.93;;;22.50;75.80;;;;;;5093644;28;20465;-47
2022/06/13 07:35:02;;;;;;;7.20;3.40;;;22.60;74.00;;;;;;5092692;28;20427;-45
2022/06/13 07:40:13;;;;;;;5.33;3.00;;;22.80;72.30;;;;;;5094362;28;20444;-46
2022/06/13 07:42:47;;;;;;;5.77;3.20;;;22.70;70.30;;;;;;5095619;28;20425;-46
2022/06/13 07:45:17;;;;;;;4.77;3.27;;;22.70;70.60;;;;;;5094674;28;20459;-46
2022/06/13 07:47:43;;;;;;;5.07;3.30;;;22.80;69.50;;;;;;5077142;28;20420;-44
2022/06/13 07:50:14;;;;;;;5.93;2.93;;;22.80;69.50;;;;;;5093503;28;20754;-45
2022/06/13 07:52:40;;;;;;;6.37;3.33;;;22.80;67.50;;;;;;5076152;28;20508;-44
2022/06/13 07:55:05;;;;;;;7.70;3.40;;;22.90;68.60;;;;;;5089687;28;20514;-49
2022/06/13 07:57:31;;;;;;;5.13;3.07;;;23.00;66.70;;;;;;5093545;28;20187;-46
2022/06/13 07:59:57;;;;;;;4.63;3.53;;;23.20;66.20;;;;;;5092557;28;20433;-46
2022/06/13 08:02:24;;;;;;;8.67;3.70;;;23.20;64.00;;;;;;5093730;28;20557;-44
2022/06/13 08:04:50;;;;;;;7.77;3.57;;;23.30;64.30;;;;;;5095565;28;20190;-47
2022/06/13 08:07:16;;;;;;;4.90;3.03;;;23.30;64.10;;;;;;5096335;28;20425;-45
2022/06/13 08:09:41;;;;;;;5.13;3.07;;;23.40;64.50;;;;;;5097312;28;20194;-47
2022/06/13 08:12:08;;;;;;;5.60;3.30;;;23.40;63.20;;;;;;5096629;28;20471;-47
2022/06/13 08:14:34;;;;;;;9.70;4.50;;;23.20;62.10;;;;;;5096415;28;20277;-45
2022/06/13 08:17:00;;;;;;;5.73;4.03;;;23.20;62.20;;;;;;5096814;28;20418;-45
2022/06/13 08:19:25;;;;;;;4.90;3.43;;;23.20;63.40;;;;;;5096082;28;20182;-46
2022/06/13 08:21:51;;;;;;;5.67;3.33;;;23.20;61.50;;;;;;5093207;28;20557;-44
2022/06/13 08:24:17;;;;;;;4.50;3.10;;;23.30;60.80;;;;;;5092485;28;20407;-44
2022/06/13 08:26:43;;;;;;;8.43;3.83;;;23.40;62.50;;;;;;5094181;28;20417;-45
2022/06/13 08:29:09;;;;;;;9.20;4.10;;;23.60;62.10;;;;;;5094848;28;20484;-43
2022/06/13 08:31:36;;;;;;;5.00;3.40;;;23.80;62.30;;;;;;5095933;28;20198;-45
2022/06/13 08:34:04;;;;;;;8.43;4.50;;;24.00;61.80;;;;;;5094999;28;20713;-45
2022/06/13 08:36:30;;;;;;;8.10;4.73;;;24.20;60.00;;;;;;5094743;28;20809;-46
2022/06/13 08:38:55;;;;;;;5.20;3.50;;;23.90;59.50;;;;;;5094634;28;20851;-45
2022/06/13 08:41:27;;;;;;;6.23;3.73;;;23.90;61.60;;;;;;5094619;28;21003;-46
2022/06/13 08:44:32;;;;;;;5.40;3.43;;;24.10;60.70;;;;;;5094493;28;20280;-45
2022/06/13 08:47:20;;;;;;;7.70;3.87;;;24.00;59.60;;;;;;5092398;28;20416;-46
2022/06/13 08:50:04;;;;;;;8.17;3.43;;;24.30;60.50;;;;;;5093219;28;20449;-48
2022/06/13 08:52:30;;;;;;;10.87;4.07;;;24.60;62.50;;;;;;5095223;28;20467;-48
2022/06/13 08:55:12;;;;;;;13.60;4.50;;;24.70;61.40;;;;;;5095223;28;20441;-44
2022/06/13 08:58:07;;;;;;;6.60;4.07;;;24.90;58.30;;;;;;5093806;28;20188;-45
2022/06/13 09:00:35;;;;;;;6.03;4.00;;;25.10;57.10;;;;;;5092752;28;20438;-47
2022/06/13 09:03:06;;;;;;;6.27;3.67;;;24.90;57.00;;;;;;5093430;28;20885;-43
2022/06/13 09:05:38;;;;;;;7.37;4.10;;;25.10;56.30;;;;;;5092781;28;20420;-47
2022/06/13 09:08:05;;;;;;;5.90;4.73;;;24.20;56.40;;;;;;5095718;28;20500;-47
2022/06/13 09:10:35;;;;;;;7.70;4.73;;;23.70;58.00;;;;;;5094960;28;20452;-44
2022/06/13 09:13:11;;;;;;;9.30;5.00;;;23.70;58.90;;;;;;5092881;28;20742;-45
2022/06/13 09:15:47;;;;;;;6.90;4.10;;;23.80;58.70;;;;;;5095490;28;20452;-46
2022/06/13 09:18:37;;;;;;;6.47;4.10;;;23.70;58.10;;;;;;5094172;28;20473;-50
2022/06/13 09:21:21;;;;;;;7.87;3.60;;;24.30;57.20;;;;;;5093876;28;20484;-43
2022/06/13 09:23:59;;;;;;;9.20;3.93;;;24.80;57.30;;;;;;5093704;28;20924;-47
2022/06/13 09:26:36;;;;;;;10.27;3.20;;;25.50;55.90;;;;;;5094866;28;20436;-44
2022/06/13 09:29:08;;;;;;;6.70;3.17;;;26.50;52.80;;;;;;5091806;28;20892;-43
2022/06/13 09:31:37;;;;;;;5.40;3.13;;;27.00;51.50;;;;;;5093116;28;20432;-43
2022/06/13 09:34:14;;;;;;;5.30;3.13;;;27.30;51.60;;;;;;5088206;28;20440;-45
2022/06/13 09:36:50;;;;;;;5.00;3.20;;;27.10;50.30;;;;;;5094107;28;20411;-44
2022/06/13 09:39:18;;;;;;;5.57;3.23;;;27.20;48.70;;;;;;5079223;28;20502;-46
2022/06/13 09:41:59;;;;;;;7.80;2.90;;;26.40;47.00;;;;;;5093960;28;20512;-45
2022/06/13 09:44:43;;;;;;;4.90;2.97;;;27.40;46.20;;;;;;5092051;28;20432;-45
2022/06/13 09:47:27;;;;;;;4.40;2.67;;;28.00;44.90;;;;;;5094580;28;20453;-46
2022/06/13 09:50:16;;;;;;;6.20;2.90;;;28.80;42.80;;;;;;5094259;28;20423;-44
2022/06/13 09:52:57;;;;;;;5.53;2.80;;;29.30;43.10;;;;;;5092371;28;20473;-46
2022/06/13 09:55:42;;;;;;;5.97;2.77;;;30.10;43.50;;;;;;5087054;28;20484;-43
2022/06/13 09:58:27;;;;;;;5.07;2.17;;;30.70;41.30;;;;;;5096313;28;20424;-45
2022/06/13 10:00:55;;;;;;;4.00;2.37;;;31.20;37.80;;;;;;5080329;28;20429;-46
2022/06/13 10:03:36;;;;;;;7.40;2.87;;;30.90;37.90;;;;;;5098586;28;20452;-46
2022/06/13 10:06:14;;;;;;;3.80;2.40;;;30.90;38.00;;;;;;5099022;28;20993;-45
2022/06/13 10:08:39;;;;;;;4.37;3.00;;;28.60;38.50;;;;;;5096743;28;20441;-43
2022/06/13 10:11:27;;;;;;;4.37;2.57;;;28.10;41.10;;;;;;5099499;28;20851;-45
2022/06/13 10:14:33;;;;;;;5.10;3.07;;;27.80;42.10;;;;;;5098534;28;20221;-45
2022/06/13 10:17:14;;;;;;;4.97;3.40;;;27.30;42.80;;;;;;5098764;28;20983;-45
2022/06/13 10:19:58;;;;;;;5.60;2.93;;;27.20;42.20;;;;;;5098124;28;20648;-46
2022/06/13 10:22:32;;;;;;;4.70;3.20;;;27.10;43.90;;;;;;5098482;28;20414;-45
2022/06/13 10:25:24;;;;;;;5.57;2.93;;;26.30;44.60;;;;;;5096528;28;20527;-45
2022/06/13 10:28:02;;;;;;;5.90;2.93;;;26.10;43.90;;;;;;5097607;28;21139;-44
2022/06/13 10:30:51;;;;;;;4.23;2.83;;;26.00;45.40;;;;;;5096487;28;20611;-46
2022/06/13 10:33:29;;;;;;;2.93;2.30;;;26.30;43.40;;;;;;5097264;28;20550;-47
2022/06/13 10:36:18;;;;;;;4.20;2.43;;;26.70;42.50;;;;;;5098150;28;20425;-44
2022/06/13 10:39:06;;;;;;;5.53;3.00;;;27.20;41.70;;;;;;5095939;28;20865;-44
2022/06/13 10:41:36;;;;;;;3.60;2.73;;;27.20;41.60;;;;;;5095564;28;20414;-47
2022/06/13 10:44:03;;;;;;;4.27;2.70;;;27.50;42.90;;;;;;5095198;28;20470;-44
2022/06/13 10:46:29;;;;;;;3.37;2.43;;;27.90;42.40;;;;;;5097162;28;20468;-47
2022/06/13 10:49:24;;;;;;;3.30;2.13;;;28.40;40.70;;;;;;5096629;28;20438;-45
2022/06/13 10:51:52;;;;;;;6.47;2.03;;;28.60;40.60;;;;;;5078555;28;20193;-45
2022/06/13 10:54:37;;;;;;;4.90;2.20;;;28.40;39.60;;;;;;5094847;28;20807;-47
2022/06/13 10:57:13;;;;;;;4.53;2.73;;;28.10;39.50;;;;;;5092219;28;20437;-46
2022/06/13 10:59:39;;;;;;;5.67;2.47;;;28.40;40.00;;;;;;5096496;28;20912;-47
2022/06/13 11:02:22;;;;;;;3.20;2.20;;;28.60;40.40;;;;;;5096278;28;20419;-47
2022/06/13 11:05:05;;;;;;;5.03;2.80;;;28.50;39.80;;;;;;5096935;28;20879;-47
2022/06/13 11:07:33;;;;;;;4.40;2.10;;;28.70;39.70;;;;;;5097989;28;20506;-45
2022/06/13 11:09:59;;;;;;;4.13;2.80;;;29.00;40.60;;;;;;5096689;28;20708;-46
2022/06/13 11:12:37;;;;;;;4.80;3.10;;;29.20;40.50;;;;;;5097364;28;20558;-47
2022/06/13 11:23:56;;;;;;;9.37;2.30;;;28.80;39.20;;;;;;5097371;28;20497;-47
2022/06/13 11:29:06;;;;;;;4.10;2.90;;;28.90;40.70;;;;;;5096511;28;20489;-44
2022/06/13 11:31:32;;;;;;;3.63;2.43;;;28.10;38.90;;;;;;5096524;28;20434;-44
2022/06/13 11:34:37;;;;;;;3.40;2.10;;;28.10;40.60;;;;;;5098095;28;20531;-46
2022/06/13 11:37:05;;;;;;;3.30;2.33;;;28.50;41.40;;;;;;5097890;28;20933;-46
2022/06/13 11:39:39;;;;;;;3.20;2.50;;;28.90;39.40;;;;;;5097030;28;20813;-45
2022/06/13 11:42:30;;;;;;;3.73;2.77;;;28.60;38.30;;;;;;5096195;28;20601;-48
2022/06/13 11:45:02;;;;;;;2.77;2.57;;;28.60;39.60;;;;;;5085873;28;20462;-46
2022/06/13 11:47:44;;;;;;;5.87;3.10;;;28.80;38.70;;;;;;5096775;28;20410;-47
2022/06/13 11:50:24;;;;;;;3.87;2.60;;;28.40;37.70;;;;;;5095194;28;20506;-46
2022/06/13 11:55:54;;;;;;;5.00;2.60;;;28.00;39.20;;;;;;5093927;28;20780;-45
2022/06/13 11:58:23;;;;;;;3.13;2.30;;;28.60;40.00;;;;;;5095164;28;20697;-46
2022/06/13 12:00:54;;;;;;;3.50;2.40;;;29.00;38.00;;;;;;5093617;28;20429;-46
2022/06/13 12:03:25;;;;;;;3.47;1.90;;;29.30;37.60;;;;;;5092256;28;20576;-46
2022/06/13 12:05:59;;;;;;;4.00;2.60;;;29.60;37.10;;;;;;5094634;28;20683;-47
2022/06/13 12:08:27;;;;;;;7.03;2.70;;;29.00;37.30;;;;;;5093535;28;20433;-46
2022/06/13 12:10:57;;;;;;;3.60;2.70;;;27.90;37.50;;;;;;5094067;28;20423;-45
2022/06/13 12:13:23;;;;;;;4.07;2.87;;;27.90;39.20;;;;;;5095124;28;20466;-47
2022/06/13 12:15:58;;;;;;;3.80;3.00;;;28.30;39.90;;;;;;5094303;28;20429;-49
2022/06/13 12:18:43;;;;;;;3.60;2.73;;;28.90;38.90;;;;;;5091806;28;20264;-47
2022/06/13 12:21:18;;;;;;;4.00;2.50;;;29.40;39.10;;;;;;5094696;28;20418;-47
2022/06/13 12:24:37;;;;;;;3.70;2.60;;;29.80;38.40;;;;;;5094364;28;20797;-45
2022/06/13 12:27:07;;;;;;;3.23;2.23;;;29.70;36.80;;;;;;4980089;28;20437;-46
2022/06/13 12:29:48;;;;;;;5.30;3.00;;;29.60;36.70;;;;;;5011608;28;20609;-47
2022/06/13 12:32:27;;;;;;;4.90;2.70;;;29.50;36.80;;;;;;5071069;28;20506;-47
2022/06/13 12:34:53;;;;;;;3.07;2.60;;;29.70;36.60;;;;;;5094839;28;20417;-46
2022/06/13 12:37:47;;;;;;;6.40;2.53;;;29.60;35.80;;;;;;5094273;28;20423;-48
2022/06/13 12:40:41;;;;;;;3.20;2.37;;;29.70;36.10;;;;;;5095066;28;20197;-46
2022/06/13 12:43:28;;;;;;;4.50;2.30;;;28.90;36.40;;;;;;5077990;28;20430;-44
2022/06/13 12:46:17;;;;;;;4.97;3.10;;;28.60;36.30;;;;;;5095776;28;20543;-45
2022/06/13 12:49:04;;;;;;;2.93;2.50;;;28.40;39.00;;;;;;5097253;28;20733;-48
2022/06/13 12:51:34;;;;;;;4.17;2.57;;;28.70;38.00;;;;;;5095883;28;21126;-44
2022/06/13 12:54:17;;;;;;;2.90;2.40;;;28.90;37.70;;;;;;5094970;28;20523;-46
2022/06/13 12:56:54;;;;;;;4.67;2.30;;;29.20;38.20;;;;;;5095536;28;20393;-46
2022/06/13 12:59:41;;;;;;;5.73;2.90;;;29.80;38.70;;;;;;5095000;28;20848;-47
2022/06/13 13:02:31;;;;;;;5.23;2.50;;;29.70;35.50;;;;;;5093788;28;20400;-46
2022/06/13 13:05:23;;;;;;;2.77;2.00;;;29.10;35.40;;;;;;5093737;28;20871;-45
2022/06/13 13:07:54;;;;;;;3.53;2.47;;;29.10;36.80;;;;;;5093470;28;20393;-45
2022/06/13 13:10:23;;;;;;;4.77;2.50;;;29.20;36.40;;;;;;5093477;28;20431;-45
2022/06/13 13:13:12;;;;;;;2.33;2.00;;;29.60;35.90;;;;;;5094563;28;20522;-45
2022/06/13 13:15:53;;;;;;;3.43;2.40;;;29.80;36.50;;;;;;5094011;28;20483;-45
2022/06/13 13:18:19;;;;;;;3.67;2.10;;;30.20;36.10;;;;;;5093609;28;20425;-45
2022/06/13 13:20:49;;;;;;;2.30;1.93;;;30.40;35.30;;;;;;5088738;28;20480;-47
2022/06/13 13:23:25;;;;;;;4.63;2.40;;;30.40;34.80;;;;;;5096488;28;20578;-47
2022/06/13 13:26:06;;;;;;;3.00;2.10;;;30.30;34.60;;;;;;5096267;28;20498;-47
2022/06/13 13:28:42;;;;;;;5.57;2.10;;;29.90;34.30;;;;;;5094740;28;20475;-47
2022/06/13 13:31:12;;;;;;;3.50;2.20;;;30.00;35.60;;;;;;5052637;28;20454;-45
2022/06/13 13:34:05;;;;;;;4.20;2.20;;;30.10;34.70;;;;;;5056764;28;20460;-48
2022/06/13 13:36:53;;;;;;;3.93;2.10;;;30.10;33.90;;;;;;5058414;28;20412;-45
2022/06/13 13:39:25;;;;;;;3.47;1.93;;;30.10;34.50;;;;;;5058899;28;20695;-45
2022/06/13 13:41:58;;;;;;;3.70;1.83;;;30.00;33.50;;;;;;5057413;28;20474;-45
2022/06/13 13:44:29;;;;;;;2.87;2.00;;;29.40;33.50;;;;;;5056914;28;20432;-45
2022/06/13 13:47:05;;;;;;;6.23;2.03;;;28.90;35.30;;;;;;5058005;28;20410;-45
2022/06/13 13:49:38;;;;;;;4.03;2.20;;;28.90;35.30;;;;;;5059617;28;20420;-48
2022/06/13 13:52:17;;;;;;;3.23;1.97;;;28.80;34.70;;;;;;5058639;28;20467;-45
2022/06/13 13:54:49;;;;;;;3.43;2.03;;;28.70;34.50;;;;;;5058031;28;20428;-47